Date,TemperatureHighF,TemperatureAvgF,TemperatureLowF,DewpointHighF,DewpointAvgF,DewpointLowF,HumidityHigh,HumidityAvg,HumidityLow,PressureMaxIn,PressureMinIn,WindSpeedMaxMPH,WindSpeedAvgMPH,GustSpeedMaxMPH,PrecipitationSumIn
2014-1-11,37,33,30,32,27,-100,94,84,72,30.02,29.55,17,10,0,0.00
2014-1-12,30,26,24,25,19,14,87,74,60,30.06,29.60,17,10,0,0.00
2014-1-13,36,31,25,25,23,18,87,71,51,30.25,30.05,17,10,0,0.00
2014-1-14,37,31,15,22,19,11,84,62,49,30.47,30.24,16,7,0,0.00
2014-1-15,38,20,8,21,13,5,92,75,46,30.45,30.29,12,4,0,0.00
2014-1-16,28,12,0,16,6,-4,88,78,58,30.45,30.36,5,1,0,0.00
2014-1-17,9,2,-3,6,-1,-7,89,85,82,30.38,30.27,3,1,0,0.00
2014-1-18,29,10,0,14,2,-100,92,76,54,30.42,30.31,3,1,0,0.00
2014-1-19,19,2,-5,10,-2,-9,90,82,67,30.32,30.25,2,1,0,0.00
2014-1-20,31,14,-2,15,5,-6,86,71,50,30.50,30.37,3,1,0,0.00
2014-1-21,25,3,-9,10,-3,-13,86,77,51,30.51,30.30,3,1,0,0.00
2014-1-22,22,7,-4,15,3,-8,90,82,64,30.30,30.06,7,1,0,0.00
2014-1-23,25,11,-4,14,5,-8,95,77,54,30.50,30.19,9,2,0,0.00
2014-1-24,28,6,-6,10,-1,-10,84,74,46,30.56,30.41,2,1,0,0.00
2014-1-25,29,10,-3,12,1,-100,86,74,49,30.45,30.19,2,1,0,0.00
2014-1-26,29,10,-4,15,4,-8,86,75,54,30.19,30.01,4,1,0,0.00
2014-2-3,21,14,7,17,11,3,90,86,76,29.83,29.68,10,4,0,0.00
2014-2-4,17,5,-6,14,0,-11,87,79,70,30.00,29.69,11,4,0,0.00
2014-2-5,4,-4,-10,-1,-9,-15,84,79,74,30.07,29.93,5,1,0,0.00
2014-2-6,6,0,-8,3,-5,-12,86,81,72,29.93,29.73,4,1,0,0.00
2014-2-7,25,16,6,19,12,2,91,86,72,29.76,29.63,15,5,0,0.00
2014-2-8,35,29,20,29,25,18,94,84,70,29.83,29.59,23,13,0,0.00
2014-2-9,37,33,29,31,26,21,95,74,58,29.93,29.74,30,13,0,0.00
2014-2-10,36,30,26,27,23,21,89,74,55,30.06,29.92,11,4,0,0.00
2014-2-11,34,32,29,26,24,22,82,73,67,30.11,29.92,20,11,0,0.00
2014-2-12,32,30,27,31,27,22,95,90,76,30.12,29.84,13,8,0,0.00
2014-2-13,40,36,31,33,28,18,95,76,51,29.96,29.84,26,13,0,0.00
2014-2-14,35,32,27,33,26,10,95,82,43,30.03,29.81,16,8,0,0.00
2014-2-15,38,35,33,34,30,-100,94,86,79,30.01,29.84,13,6,0,0.00
2014-2-16,40,33,23,33,26,14,93,77,54,30.12,29.67,22,13,0,0.00
2014-2-17,40,30,21,21,17,13,72,59,44,30.14,29.79,17,12,0,0.00
2014-2-18,35,31,25,25,20,16,81,65,45,30.06,29.76,27,12,0,0.00
2014-3-5,41,33,27,32,28,24,95,80,63,30.12,30.00,15,6,0,0.00
2014-3-6,38,35,32,34,31,28,95,86,68,30.01,29.82,15,9,0,0.00
2014-3-7,40,33,23,32,26,18,91,77,47,30.22,29.92,9,3,0,0.00
2014-3-8,37,26,14,27,18,-100,90,77,65,30.41,30.23,11,2,0,0.00
2014-3-9,44,36,22,30,25,17,83,66,48,30.30,30.14,13,7,0,0.00
2014-3-10,44,37,30,33,31,28,92,79,53,30.14,29.78,15,8,0,0.00
2014-3-11,35,30,26,28,21,13,94,71,46,30.29,29.83,12,4,0,0.00
2014-4-2,35,28,20,26,20,15,92,72,48,29.88,29.68,11,4,0,0.00
2014-4-3,38,26,12,22,16,9,90,69,39,30.06,29.88,7,2,0,0.00
2014-4-4,38,27,14,29,20,10,89,78,65,30.06,29.87,11,3,0,0.00
2014-4-5,42,32,21,30,23,-100,94,78,53,29.99,29.88,11,4,0,0.00
2014-4-6,39,33,22,32,27,18,95,81,46,30.14,29.98,10,5,0,0.00
2014-4-7,48,35,20,30,23,14,79,63,44,30.30,30.17,13,4,0,0.00
2014-4-8,54,38,24,34,28,21,89,69,39,30.34,30.14,8,2,0,0.00
2014-4-9,54,48,37,31,29,21,75,49,33,30.16,29.91,20,11,0,0.00
2014-4-10,52,41,29,30,25,20,79,55,34,30.10,29.97,12,4,0,0.00
2014-4-11,55,41,24,29,25,19,83,55,32,30.09,29.86,16,4,0,0.00
2014-4-12,39,37,32,27,26,25,74,65,60,29.86,29.82,2,1,0,0.00
2014-4-15,46,35,22,31,20,11,92,56,29,30.11,29.68,21,6,0,0.00
2014-4-16,43,33,16,22,18,13,92,57,32,30.02,29.86,8,2,0,0.00
2014-4-17,54,37,17,26,20,12,84,56,31,30.07,29.91,11,4,0,0.00
2014-4-18,48,40,33,38,31,24,91,71,50,30.01,29.86,14,6,0,0.00
2014-4-19,60,42,26,27,22,-100,80,52,23,30.05,29.99,13,3,0,0.00
2014-4-20,58,43,27,32,24,20,87,55,24,30.25,30.05,11,3,0,0.00
2014-4-21,63,44,23,29,22,14,88,51,15,30.30,30.03,9,3,0,0.00
2014-4-26,44,36,33,41,32,-100,96,91,88,29.60,29.44,10,3,0,0.00
2014-4-27,42,34,29,32,28,24,94,81,51,29.80,29.57,11,6,0,0.00
2014-4-28,36,30,22,29,23,17,92,73,54,30.28,29.80,12,4,0,0.00
2014-4-29,46,32,14,24,20,12,92,63,34,30.48,30.28,14,5,0,0.00
2014-4-30,53,39,19,23,18,14,90,50,21,30.51,30.35,12,5,0,0.00
2014-5-1,62,41,20,30,23,16,87,55,25,30.39,30.17,8,2,0,0.00
2014-5-2,67,50,25,33,26,20,90,49,17,30.21,30.03,10,4,0,0.00
2014-5-3,43,42,40,30,29,29,64,59,58,29.98,29.98,4,3,0,0.00
2014-5-15,56,50,43,33,32,31,68,50,38,30.18,30.16,0,0,0,0.00
2014-5-16,66,49,32,40,33,28,91,60,30,30.19,30.08,10,2,0,0.00
2014-5-17,68,56,42,48,35,-100,90,53,29,30.08,29.90,9,4,0,0.00
2014-5-18,64,51,37,40,34,27,90,56,26,29.93,29.74,12,5,0,0.00
2014-5-19,60,46,30,33,22,-100,89,48,30,30.01,29.83,12,4,0,0.00
2014-5-20,62,43,29,44,31,-100,89,67,35,30.06,29.94,11,3,0,0.00
2014-5-21,72,60,45,42,36,31,79,43,22,30.10,29.99,13,6,0,0.00
2014-5-22,75,55,36,42,32,-100,88,50,21,30.22,30.11,11,3,0,0.00
2014-5-23,72,58,39,43,39,30,87,53,22,30.23,30.02,12,3,0,0.00
2014-5-24,61,46,34,44,38,32,93,76,51,30.11,30.07,6,1,0,0.00
2014-5-25,73,60,35,48,43,34,95,58,32,30.17,30.04,8,2,0,0.00
2014-5-26,54,43,34,43,37,32,93,82,64,30.17,30.10,2,0,0,0.00
2014-5-30,76,61,38,42,35,28,82,42,20,30.20,30.01,10,3,0,0.00
2014-5-31,72,53,38,46,38,-100,90,63,28,30.10,29.94,14,3,0,0.00
2014-6-1,65,50,36,43,37,32,95,66,30,30.14,29.97,8,3,0,0.00
2014-6-2,74,53,28,42,34,25,92,56,22,30.18,29.97,8,2,0,0.00
2014-6-3,71,53,35,44,36,30,88,56,25,30.04,29.89,12,3,0,0.00
2014-6-4,70,51,29,42,34,26,94,59,19,30.11,30.01,14,3,0,0.00
2014-6-5,72,53,27,41,30,20,91,51,14,30.13,30.00,10,3,0,0.00
2014-6-6,72,55,33,38,29,22,78,42,17,30.06,29.97,11,4,0,0.00
2014-6-7,71,54,36,41,34,-100,91,52,26,30.12,30.00,9,2,0,0.00
2014-6-8,65,53,36,41,36,28,88,56,28,30.22,30.04,11,6,0,0.00
2014-6-9,74,52,28,40,32,25,90,53,18,30.23,29.98,11,4,0,0.00
2014-6-10,75,59,44,42,33,20,63,39,19,30.00,29.86,17,6,0,0.00
2014-6-11,55,53,51,25,23,20,35,31,25,29.96,29.91,9,5,0,0.00
2014-6-12,70,59,39,41,38,32,77,49,34,30.14,30.04,7,3,0,0.00
2014-6-13,68,61,50,48,30,24,82,34,19,29.90,29.83,15,8,0,0.00
2014-6-14,49,45,41,34,29,22,72,54,37,29.95,29.86,10,7,0,0.00
2014-6-15,62,54,31,43,36,28,95,55,27,29.98,29.84,13,5,0,0.00
2014-6-16,56,46,35,50,39,31,90,77,53,29.86,29.75,10,3,0,0.00
2014-6-17,50,44,38,39,36,31,94,74,49,30.00,29.80,13,5,0,0.00
2014-6-18,47,40,34,38,34,32,91,79,61,30.10,29.99,15,6,0,0.00
2014-6-19,66,54,37,42,39,34,90,60,34,30.23,30.16,11,6,0,0.00
2014-6-20,77,57,34,47,39,31,93,57,23,30.23,30.04,12,3,0,0.00
2014-6-21,77,57,35,43,34,-100,88,50,16,30.11,29.99,13,2,0,0.00
2014-6-22,66,53,37,51,40,31,87,64,35,30.16,30.06,14,2,0,0.00
2014-6-23,75,54,34,46,39,32,94,63,29,30.21,30.09,6,1,0,0.00
2014-6-24,80,58,39,47,41,35,88,57,24,30.22,30.03,12,3,0,0.00
2014-6-25,78,61,40,50,42,37,93,56,24,30.10,29.96,13,2,0,0.00
2014-6-26,66,54,43,54,47,37,92,77,61,30.01,29.85,9,2,0,0.00
2014-6-27,62,52,46,48,46,43,94,80,56,30.00,29.88,11,3,0,0.00
2014-6-28,65,54,43,48,38,-100,95,61,38,30.04,29.97,15,6,0,0.00
2014-6-29,71,59,38,41,32,24,83,40,18,30.12,30.03,14,6,0,0.00
2014-6-30,68,57,38,36,28,20,79,36,16,30.29,30.06,9,4,0,0.00
2014-7-1,76,57,29,40,33,25,87,49,16,30.35,30.20,7,2,0,0.00
2014-7-2,83,62,35,47,40,31,89,50,19,30.31,30.12,8,2,0,0.00
2014-7-3,86,59,40,55,44,36,89,61,23,30.25,30.14,16,2,0,0.00
2014-7-4,86,67,50,55,48,38,79,53,22,30.30,30.16,15,2,0,0.00
2014-7-5,87,65,42,54,40,-100,88,50,15,30.30,30.23,12,3,0,0.00
2014-7-6,86,65,40,47,41,35,83,47,20,30.37,30.20,8,2,0,0.00
2014-7-7,83,65,41,48,40,33,88,49,17,30.25,30.18,10,3,0,0.00
2014-7-8,88,66,42,51,44,36,84,51,23,30.30,30.12,8,2,0,0.00
2014-7-9,89,66,42,50,44,38,89,52,19,30.21,30.04,10,2,0,0.00
2014-7-10,64,61,59,53,51,46,75,68,61,30.10,30.08,3,0,0,0.00
2014-7-12,80,69,55,56,52,48,91,57,39,30.38,30.30,14,5,0,0.00
2014-7-15,84,67,56,58,52,44,91,63,26,30.22,30.09,13,4,0,0.00
2014-7-16,76,60,45,53,48,42,95,69,31,30.20,30.11,9,2,0,0.00
2014-7-17,80,62,41,49,44,37,90,56,30,30.23,30.05,11,2,0,0.00
2014-7-18,84,65,42,51,42,32,89,49,16,30.17,30.05,12,3,0,0.00
2014-7-19,83,63,42,44,38,34,80,45,19,30.16,30.08,12,4,0,0.00
2014-7-20,85,66,44,52,41,34,68,44,21,30.14,30.05,13,4,0,0.00
2014-7-21,80,68,58,51,48,46,73,51,31,30.22,30.10,11,5,0,0.00
2014-7-23,87,67,55,46,42,38,61,45,18,30.15,30.13,6,2,0,0.00
2014-7-24,80,61,45,48,35,20,82,44,13,30.18,30.11,12,4,0,0.00
2014-7-25,81,58,31,39,28,25,81,40,13,30.20,30.12,14,4,0,0.00
2014-7-26,83,58,33,37,28,23,82,40,12,30.33,30.16,7,2,0,0.00
2014-7-27,87,62,35,49,36,28,79,43,14,30.46,30.29,6,1,0,0.00
2014-7-28,87,63,39,50,41,33,81,48,25,30.43,30.28,12,2,0,0.00
2014-7-29,70,62,55,57,50,44,90,66,44,30.36,30.29,11,5,0,0.00
2014-7-30,75,60,48,52,48,45,88,68,36,30.37,30.30,10,4,0,0.00
2014-7-31,79,59,40,49,41,36,92,55,28,30.39,30.25,10,2,0,0.00
2014-8-1,79,60,41,49,43,36,88,57,26,30.35,30.28,10,2,0,0.00
2014-8-2,83,60,41,51,43,37,89,57,26,30.38,30.24,11,2,0,0.00
2014-8-3,85,64,40,54,44,36,90,53,21,30.36,30.15,9,2,0,0.00
2014-8-4,66,59,54,58,52,43,95,79,44,30.30,30.19,8,2,0,0.00
2014-8-5,69,58,54,57,55,53,96,90,63,30.24,30.19,6,1,0,0.00
2014-8-6,68,57,51,57,53,49,97,88,62,30.27,30.20,12,2,0,0.00
2014-8-7,74,58,49,56,50,44,97,77,42,30.28,30.13,9,2,0,0.00
2014-8-8,76,57,39,50,46,37,96,69,33,30.24,30.13,10,2,0,0.00
2014-8-9,77,59,40,51,45,36,95,66,23,30.33,30.21,5,1,0,0.00
2014-8-10,82,61,41,51,42,35,93,58,19,30.44,30.29,5,1,0,0.00
2014-8-11,86,62,39,52,44,36,91,58,18,30.45,30.29,5,1,0,0.00
2014-8-12,85,62,42,50,46,39,89,60,25,30.37,30.23,9,2,0,0.00
2014-8-13,79,63,50,56,52,48,96,72,36,30.32,30.16,14,3,0,0.00
2014-8-14,76,62,52,58,53,49,95,76,42,30.22,30.14,9,2,0,0.00
2014-8-15,81,60,43,56,48,40,96,70,27,30.26,30.16,10,2,0,0.00
2014-8-16,79,60,40,52,42,38,95,54,25,30.29,30.21,10,4,0,0.00
2014-8-17,81,56,36,45,38,33,92,57,18,30.31,30.18,9,2,0,0.00
2014-8-18,83,65,41,48,40,34,84,44,17,30.24,30.06,11,3,0,0.00
2014-8-19,76,57,44,50,43,37,78,61,32,30.08,29.97,10,2,0,0.00
2014-8-20,70,53,40,53,47,39,96,83,47,30.14,29.98,9,1,0,0.00
2014-8-21,53,50,49,50,49,48,96,95,91,30.19,30.13,5,2,0,0.00
2014-8-22,48,48,48,46,46,46,94,94,94,30.20,30.20,6,6,0,0.00
2014-8-23,54,46,47,46,40,41,94,73,62,30.11,30.06,8,4,0,0.00
2014-8-24,61,51,41,46,42,39,95,75,51,30.15,30.09,8,2,0,0.00
2014-8-25,60,46,32,52,42,30,96,86,61,30.20,30.13,8,1,0,0.00
2014-8-26,73,54,38,50,43,36,96,72,34,30.29,30.21,8,2,0,0.00
2014-8-27,74,57,40,49,42,38,95,63,29,30.31,30.21,7,2,0,0.00
2014-8-28,77,58,37,50,43,35,95,63,27,30.33,30.15,9,2,0,0.00
2014-8-29,74,55,41,51,45,39,94,71,43,30.24,30.16,9,2,0,0.00
2014-9-2,76,67,46,40,35,33,68,33,23,30.04,29.96,12,6,0,0.00
2014-9-3,73,53,35,43,28,9,90,49,11,30.03,29.88,14,5,0,0.00
2014-9-4,67,49,26,32,24,12,73,42,16,30.20,30.03,5,2,0,0.00
2014-9-5,71,52,31,41,35,27,88,56,28,30.31,30.21,7,2,0,0.00
2014-9-6,74,58,36,48,41,34,94,55,31,30.39,30.21,10,2,0,0.00
2014-9-7,75,53,34,49,40,32,94,66,32,30.24,30.05,9,1,0,0.00
2014-9-8,75,50,31,50,41,29,95,73,31,30.15,29.99,10,2,0,0.00
2014-9-9,73,56,38,50,39,26,91,59,20,30.05,29.94,12,3,0,0.00
2014-9-10,65,50,31,36,33,26,95,56,30,30.13,30.02,11,4,0,0.00
2014-9-11,46,43,41,39,36,34,80,77,64,30.14,30.11,9,5,0,0.00
2014-9-12,64,48,24,25,22,17,88,41,17,30.44,30.16,9,4,0,0.00
2014-9-13,73,47,22,33,24,17,86,47,13,30.25,30.07,11,3,0,0.00
2014-9-14,75,60,29,36,26,18,85,34,12,30.21,30.10,10,3,0,0.00
2014-9-15,78,53,30,39,30,24,81,47,19,30.31,30.19,9,2,0,0.00
2014-9-16,79,57,35,44,37,27,82,51,24,30.31,30.13,5,1,0,0.00
2014-9-17,80,58,39,48,42,36,92,61,25,30.20,30.04,9,2,0,0.00
2014-9-18,55,47,42,45,41,38,86,79,67,30.09,30.05,2,0,0,0.00
2014-9-21,74,64,52,51,45,41,93,53,31,30.35,30.21,10,2,0,0.00
2014-9-22,63,53,49,54,50,47,96,89,63,30.25,30.17,11,3,0,0.00
2014-9-23,70,55,45,53,49,44,96,83,51,30.31,30.22,2,0,0,0.00
2014-9-24,79,66,47,50,46,42,89,52,27,30.34,30.19,7,2,0,0.00
2014-9-25,82,58,35,47,40,33,92,59,22,30.27,30.05,9,2,0,0.00
2014-9-26,78,58,37,47,41,35,92,61,28,30.13,30.05,9,3,0,0.00
2014-9-28,53,49,39,50,46,38,95,91,81,30.12,30.02,10,4,0,0.00
2014-9-29,52,44,38,44,41,37,97,90,68,30.10,29.96,10,3,0,0.00
2014-9-30,49,44,37,45,41,32,95,90,80,30.00,29.85,7,3,0,0.00
2014-10-1,46,40,36,36,33,27,93,76,48,30.16,29.93,10,3,0,0.00
2014-10-2,54,45,32,34,30,26,87,58,38,30.29,30.16,10,6,0,0.00
2014-10-3,58,44,25,29,19,2,86,45,11,30.46,30.31,12,3,0,0.00
2014-10-4,63,38,23,36,25,19,90,65,29,30.41,30.23,8,2,0,0.00
2014-10-6,64,55,49,36,34,32,56,46,33,30.17,30.10,8,3,0,0.00
2014-10-7,56,42,30,40,34,27,91,74,55,30.23,30.15,5,1,0,0.00
2014-10-11,61,50,32,37,31,29,91,48,33,30.18,29.85,12,6,0,0.00
2014-10-12,49,40,27,38,31,23,93,74,44,30.25,29.85,13,3,0,0.00
2014-10-13,55,35,20,33,26,17,93,72,36,30.30,30.23,9,1,0,0.00
2014-10-14,67,43,24,36,30,21,93,64,27,30.29,30.03,7,1,0,0.00
2014-10-15,66,47,32,36,29,21,87,55,22,30.10,29.87,15,5,0,0.00
2014-10-16,41,38,35,23,23,21,60,55,45,30.14,30.08,7,3,0,0.00